Witoka, Minnesota
Current Conditions -  °F | °C
As of 2:34 AM on Sunday 23 Nov 2014 (Local Time) from KONA Reporting Station
Overcast Overcast  
Wind Chill: 54°   Ceiling: 1400
Heat Index: 54°   Visibility: 10mi
Dew Point: 50°   Wind: 5mph
Humidity: 88%   Direction: 210°SSW
Pressure: 29.57"   Gusts: NA
Location:  43.9823°N, 91.6349°W
Report Text: KONA 230834Z AUTO 21004KT 10SM OVC014 12/10 A2957 RMK AO2
Loading
Personal Weather Stations






























Interactive Weather Map New forecast layout! Learn more

10-Day Weather Forecast

Advertisements
Track Severe Weather on mobile